This is the latest recevied weather packets stored in our database for station/object ZL1CTS-13. If no packets are shown the sender has not sent any weather packets the latest 10 day(s).
| Time | Temp. | Humidity | Pressure | Rain* | Wind** | Luminosity | Snow |
|---|---|---|---|---|---|---|---|
| 1778129404 | 19.44° C | 89% | 1010.3 hPa | 0 mm | - | - | - |
| 1778128804 | 19.44° C | 89% | 1010.3 hPa | 0 mm | - | - | - |
| 1778128204 | 19.44° C | 89% | 1010.4 hPa | 0 mm | - | - | - |
| 1778127604 | 19.44° C | 89% | 1010.3 hPa | 0 mm | - | - | - |
| 1778127004 | 19.44° C | 88% | 1010.5 hPa | 0 mm | - | - | - |
| 1778126404 | 20° C | 85% | 1010.5 hPa | 0 mm | - | - | - |
| 1778125807 | 20.56° C | 81% | 1010.6 hPa | 0 mm | - | - | - |
| 1778125206 | 21.11° C | 79% | 1010.7 hPa | 0 mm | - | - | - |
| 1778124605 | 21.11° C | 79% | 1010.8 hPa | 0 mm | - | - | - |
| 1778124004 | 21.11° C | 79% | 1010.9 hPa | 0 mm | - | - | - |
| 1778123404 | 21.11° C | 76% | 1011 hPa | 0 mm | - | - | - |
| 1778122804 | 21.67° C | 78% | 1011.2 hPa | 0 mm | - | - | - |
| 1778122204 | 20.56° C | 82% | 1011.3 hPa | 0 mm | - | - | - |
| 1778121604 | 20.56° C | 83% | 1011.5 hPa | 0 mm | - | - | - |
| 1778121004 | 20° C | 84% | 1011.7 hPa | 0 mm | - | - | - |
| 1778120404 | 19.44° C | 85% | 1011.8 hPa | 0 mm | - | - | - |
| 1778119804 | 19.44° C | 83% | 1011.9 hPa | 0 mm | - | - | - |
| 1778119204 | 20° C | 81% | 1011.9 hPa | 0 mm | - | - | - |
| 1778118604 | 20° C | 80% | 1011.9 hPa | 0 mm | - | - | - |
| 1778118004 | 20.56° C | 80% | 1012 hPa | 0 mm | - | - | - |
| 1778117404 | 20.56° C | 79% | 1012.2 hPa | 0 mm | - | - | - |
| 1778116803 | 20.56° C | 77% | 1012.1 hPa | 0 mm | - | - | - |
| 1778116204 | 20.56° C | 76% | 1012.3 hPa | 0 mm | - | - | - |
| 1778115603 | 20.56° C | 73% | 1012.4 hPa | 0 mm | - | - | - |
| 1778115006 | 21.11° C | 72% | 1012.8 hPa | 0 mm | - | - | - |
* Rain latest hour (hover to see other rain measurements)
** Current wind speed in m/s (hover to see current wind gust speed)